sensor_id;sensor_type;location;lat;lon;timestamp;temperature;humidity
23507;DHT22;11930;53.076;18.250;2022-09-09T00:00:20;12.80;99.90
23507;DHT22;11930;53.076;18.250;2022-09-09T00:03:30;12.80;99.90
23507;DHT22;11930;53.076;18.250;2022-09-09T00:08:39;12.80;99.90
23507;DHT22;11930;53.076;18.250;2022-09-09T00:11:09;12.80;99.90
23507;DHT22;11930;53.076;18.250;2022-09-09T00:13:48;12.70;99.90
23507;DHT22;11930;53.076;18.250;2022-09-09T00:16:19;12.70;99.90
23507;DHT22;11930;53.076;18.250;2022-09-09T00:19:02;12.60;99.90
23507;DHT22;11930;53.076;18.250;2022-09-09T00:21:35;12.70;99.90
23507;DHT22;11930;53.076;18.250;2022-09-09T00:24:14;12.70;99.90
23507;DHT22;11930;53.076;18.250;2022-09-09T00:26:48;12.70;99.90
23507;DHT22;11930;53.076;18.250;2022-09-09T00:29:38;12.70;99.90
23507;DHT22;11930;53.076;18.250;2022-09-09T00:32:17;12.60;99.90
23507;DHT22;11930;53.076;18.250;2022-09-09T00:34:52;12.70;99.90
23507;DHT22;11930;53.076;18.250;2022-09-09T00:37:20;12.70;99.90
23507;DHT22;11930;53.076;18.250;2022-09-09T00:39:49;12.70;99.90
23507;DHT22;11930;53.076;18.250;2022-09-09T00:42:29;12.70;99.90
23507;DHT22;11930;53.076;18.250;2022-09-09T00:45:15;12.60;99.90
23507;DHT22;11930;53.076;18.250;2022-09-09T00:47:51;12.60;99.90
23507;DHT22;11930;53.076;18.250;2022-09-09T00:53:38;12.60;99.90
23507;DHT22;11930;53.076;18.250;2022-09-09T00:58:31;12.60;99.90
23507;DHT22;11930;53.076;18.250;2022-09-09T01:01:07;12.60;99.90
23507;DHT22;11930;53.076;18.250;2022-09-09T01:06:23;12.60;99.90
23507;DHT22;11930;53.076;18.250;2022-09-09T01:10:03;12.60;99.90
23507;DHT22;11930;53.076;18.250;2022-09-09T01:12:23;12.60;99.90
23507;DHT22;11930;53.076;18.250;2022-09-09T01:15:00;12.60;99.90
23507;DHT22;11930;53.076;18.250;2022-09-09T01:17:44;12.60;99.90
23507;DHT22;11930;53.076;18.250;2022-09-09T01:20:23;12.60;99.90
23507;DHT22;11930;53.076;18.250;2022-09-09T01:23:17;12.60;99.90
23507;DHT22;11930;53.076;18.250;2022-09-09T01:26:10;12.60;99.90
23507;DHT22;11930;53.076;18.250;2022-09-09T01:28:44;12.60;99.90
23507;DHT22;11930;53.076;18.250;2022-09-09T01:31:23;12.60;99.90
23507;DHT22;11930;53.076;18.250;2022-09-09T01:33:52;12.60;99.90
23507;DHT22;11930;53.076;18.250;2022-09-09T01:36:35;12.60;99.90
23507;DHT22;11930;53.076;18.250;2022-09-09T01:39:04;12.60;99.90
23507;DHT22;11930;53.076;18.250;2022-09-09T01:41:32;12.60;99.90
23507;DHT22;11930;53.076;18.250;2022-09-09T01:44:03;12.60;99.90
23507;DHT22;11930;53.076;18.250;2022-09-09T01:46:31;12.60;99.90
23507;DHT22;11930;53.076;18.250;2022-09-09T01:48:59;12.60;99.90
23507;DHT22;11930;53.076;18.250;2022-09-09T01:51:28;12.50;99.90
23507;DHT22;11930;53.076;18.250;2022-09-09T01:53:54;12.50;99.90
23507;DHT22;11930;53.076;18.250;2022-09-09T01:59:41;12.50;99.90
23507;DHT22;11930;53.076;18.250;2022-09-09T02:08:08;12.60;99.90
23507;DHT22;11930;53.076;18.250;2022-09-09T02:11:05;12.50;99.90
23507;DHT22;11930;53.076;18.250;2022-09-09T02:13:39;12.50;99.90
23507;DHT22;11930;53.076;18.250;2022-09-09T02:21:10;12.50;99.90
23507;DHT22;11930;53.076;18.250;2022-09-09T02:23:38;12.50;99.90
23507;DHT22;11930;53.076;18.250;2022-09-09T02:26:10;12.50;99.90
23507;DHT22;11930;53.076;18.250;2022-09-09T02:28:40;12.50;99.90
23507;DHT22;11930;53.076;18.250;2022-09-09T02:31:08;12.60;99.90
23507;DHT22;11930;53.076;18.250;2022-09-09T02:33:45;12.60;99.90
23507;DHT22;11930;53.076;18.250;2022-09-09T02:36:15;12.50;99.90
23507;DHT22;11930;53.076;18.250;2022-09-09T02:38:46;12.60;99.90
23507;DHT22;11930;53.076;18.250;2022-09-09T02:41:24;12.60;99.90
23507;DHT22;11930;53.076;18.250;2022-09-09T02:43:52;12.60;99.90
23507;DHT22;11930;53.076;18.250;2022-09-09T02:46:37;12.60;99.90
23507;DHT22;11930;53.076;18.250;2022-09-09T02:51:53;12.70;99.90
23507;DHT22;11930;53.076;18.250;2022-09-09T02:54:28;12.70;99.90
23507;DHT22;11930;53.076;18.250;2022-09-09T02:57:03;12.70;99.90
23507;DHT22;11930;53.076;18.250;2022-09-09T02:59:37;12.70;99.90
23507;DHT22;11930;53.076;18.250;2022-09-09T03:02:03;12.70;99.90
23507;DHT22;11930;53.076;18.250;2022-09-09T03:04:31;12.60;99.90
23507;DHT22;11930;53.076;18.250;2022-09-09T03:06:58;12.70;99.90
23507;DHT22;11930;53.076;18.250;2022-09-09T03:09:25;12.70;99.90
23507;DHT22;11930;53.076;18.250;2022-09-09T03:11:52;12.60;99.90
23507;DHT22;11930;53.076;18.250;2022-09-09T03:14:21;12.70;99.90
23507;DHT22;11930;53.076;18.250;2022-09-09T03:16:52;12.70;99.90
23507;DHT22;11930;53.076;18.250;2022-09-09T03:19:19;12.70;99.90
23507;DHT22;11930;53.076;18.250;2022-09-09T03:21:46;12.70;99.90
23507;DHT22;11930;53.076;18.250;2022-09-09T03:24:13;12.70;99.90
23507;DHT22;11930;53.076;18.250;2022-09-09T03:26:41;12.70;99.90
23507;DHT22;11930;53.076;18.250;2022-09-09T03:29:12;12.60;99.90
23507;DHT22;11930;53.076;18.250;2022-09-09T03:31:40;12.60;99.90
23507;DHT22;11930;53.076;18.250;2022-09-09T03:34:06;12.60;99.90
23507;DHT22;11930;53.076;18.250;2022-09-09T03:36:35;12.60;99.90
23507;DHT22;11930;53.076;18.250;2022-09-09T03:39:01;12.60;99.90
23507;DHT22;11930;53.076;18.250;2022-09-09T03:41:30;12.60;99.90
23507;DHT22;11930;53.076;18.250;2022-09-09T03:43:58;12.60;99.90
23507;DHT22;11930;53.076;18.250;2022-09-09T03:46:26;12.60;99.90
23507;DHT22;11930;53.076;18.250;2022-09-09T03:48:53;12.60;99.90
23507;DHT22;11930;53.076;18.250;2022-09-09T03:51:20;12.60;99.90
23507;DHT22;11930;53.076;18.250;2022-09-09T03:53:47;12.60;99.90
23507;DHT22;11930;53.076;18.250;2022-09-09T03:56:14;12.60;99.90
23507;DHT22;11930;53.076;18.250;2022-09-09T03:58:40;12.60;99.90
23507;DHT22;11930;53.076;18.250;2022-09-09T04:01:10;12.60;99.90
23507;DHT22;11930;53.076;18.250;2022-09-09T04:03:39;12.50;99.90
23507;DHT22;11930;53.076;18.250;2022-09-09T04:06:08;12.60;99.90
23507;DHT22;11930;53.076;18.250;2022-09-09T04:08:35;12.50;99.90
23507;DHT22;11930;53.076;18.250;2022-09-09T04:11:02;12.60;99.90
23507;DHT22;11930;53.076;18.250;2022-09-09T04:13:32;12.50;99.90
23507;DHT22;11930;53.076;18.250;2022-09-09T04:16:02;12.50;99.90
23507;DHT22;11930;53.076;18.250;2022-09-09T04:18:30;12.50;99.90
23507;DHT22;11930;53.076;18.250;2022-09-09T04:20:57;12.60;99.90
23507;DHT22;11930;53.076;18.250;2022-09-09T04:23:27;12.60;99.90
23507;DHT22;11930;53.076;18.250;2022-09-09T04:25:58;12.50;99.90
23507;DHT22;11930;53.076;18.250;2022-09-09T04:28:30;12.60;99.90
23507;DHT22;11930;53.076;18.250;2022-09-09T04:31:07;12.50;99.90
23507;DHT22;11930;53.076;18.250;2022-09-09T04:33:34;12.50;99.90
23507;DHT22;11930;53.076;18.250;2022-09-09T04:36:00;12.50;99.90
23507;DHT22;11930;53.076;18.250;2022-09-09T04:38:26;12.50;99.90
23507;DHT22;11930;53.076;18.250;2022-09-09T04:40:54;12.60;99.90
23507;DHT22;11930;53.076;18.250;2022-09-09T04:43:21;12.50;99.90
23507;DHT22;11930;53.076;18.250;2022-09-09T04:45:50;12.50;99.90
23507;DHT22;11930;53.076;18.250;2022-09-09T04:48:17;12.40;99.90
23507;DHT22;11930;53.076;18.250;2022-09-09T04:50:43;12.30;99.90
23507;DHT22;11930;53.076;18.250;2022-09-09T04:53:11;12.50;99.90
23507;DHT22;11930;53.076;18.250;2022-09-09T04:55:38;12.50;99.90
23507;DHT22;11930;53.076;18.250;2022-09-09T04:58:07;12.50;99.90
23507;DHT22;11930;53.076;18.250;2022-09-09T05:00:34;12.60;99.90
23507;DHT22;11930;53.076;18.250;2022-09-09T05:03:06;12.50;99.90
23507;DHT22;11930;53.076;18.250;2022-09-09T05:05:35;12.60;99.90
23507;DHT22;11930;53.076;18.250;2022-09-09T05:08:03;12.60;99.90
23507;DHT22;11930;53.076;18.250;2022-09-09T05:10:29;12.60;99.90
23507;DHT22;11930;53.076;18.250;2022-09-09T05:12:55;12.60;99.90
23507;DHT22;11930;53.076;18.250;2022-09-09T05:15:25;12.60;99.90
23507;DHT22;11930;53.076;18.250;2022-09-09T05:17:52;12.60;99.90
23507;DHT22;11930;53.076;18.250;2022-09-09T05:20:20;12.60;99.90
23507;DHT22;11930;53.076;18.250;2022-09-09T05:22:47;12.70;99.90
23507;DHT22;11930;53.076;18.250;2022-09-09T05:25:14;12.70;99.90
23507;DHT22;11930;53.076;18.250;2022-09-09T05:27:40;12.70;99.90
23507;DHT22;11930;53.076;18.250;2022-09-09T05:30:07;12.80;99.90
23507;DHT22;11930;53.076;18.250;2022-09-09T05:32:34;12.70;99.90
23507;DHT22;11930;53.076;18.250;2022-09-09T05:35:00;12.70;99.90
23507;DHT22;11930;53.076;18.250;2022-09-09T05:37:27;12.70;99.90
23507;DHT22;11930;53.076;18.250;2022-09-09T05:39:54;12.70;99.90
23507;DHT22;11930;53.076;18.250;2022-09-09T05:42:20;12.80;99.90
23507;DHT22;11930;53.076;18.250;2022-09-09T05:44:46;12.90;99.90
23507;DHT22;11930;53.076;18.250;2022-09-09T05:47:12;12.90;99.90
23507;DHT22;11930;53.076;18.250;2022-09-09T05:49:38;12.90;99.90
23507;DHT22;11930;53.076;18.250;2022-09-09T05:52:04;12.90;99.90
23507;DHT22;11930;53.076;18.250;2022-09-09T05:54:31;12.90;99.90
23507;DHT22;11930;53.076;18.250;2022-09-09T05:56:58;12.90;99.90
23507;DHT22;11930;53.076;18.250;2022-09-09T05:59:24;12.90;99.90
23507;DHT22;11930;53.076;18.250;2022-09-09T06:01:54;12.90;99.90
23507;DHT22;11930;53.076;18.250;2022-09-09T06:04:31;13.00;99.90
23507;DHT22;11930;53.076;18.250;2022-09-09T06:07:00;13.10;99.90
23507;DHT22;11930;53.076;18.250;2022-09-09T06:09:27;13.10;99.90
23507;DHT22;11930;53.076;18.250;2022-09-09T06:11:53;13.20;99.90
23507;DHT22;11930;53.076;18.250;2022-09-09T06:14:21;13.30;99.90
23507;DHT22;11930;53.076;18.250;2022-09-09T06:16:49;13.20;99.90
23507;DHT22;11930;53.076;18.250;2022-09-09T06:19:21;13.30;99.90
23507;DHT22;11930;53.076;18.250;2022-09-09T06:21:48;13.30;99.90
23507;DHT22;11930;53.076;18.250;2022-09-09T06:24:16;13.30;99.90
23507;DHT22;11930;53.076;18.250;2022-09-09T06:26:43;13.40;99.90
23507;DHT22;11930;53.076;18.250;2022-09-09T06:29:13;13.40;99.90
23507;DHT22;11930;53.076;18.250;2022-09-09T06:31:41;13.40;99.90
23507;DHT22;11930;53.076;18.250;2022-09-09T06:34:14;13.40;99.90
23507;DHT22;11930;53.076;18.250;2022-09-09T06:36:43;13.40;99.90
23507;DHT22;11930;53.076;18.250;2022-09-09T06:39:11;13.50;99.90
23507;DHT22;11930;53.076;18.250;2022-09-09T06:41:38;13.50;99.90
23507;DHT22;11930;53.076;18.250;2022-09-09T06:44:08;13.40;99.90
23507;DHT22;11930;53.076;18.250;2022-09-09T06:46:40;13.50;99.90
23507;DHT22;11930;53.076;18.250;2022-09-09T06:49:08;13.60;99.90
23507;DHT22;11930;53.076;18.250;2022-09-09T06:51:37;13.60;99.90
23507;DHT22;11930;53.076;18.250;2022-09-09T06:54:09;13.60;99.90
23507;DHT22;11930;53.076;18.250;2022-09-09T06:56:38;13.70;99.90
23507;DHT22;11930;53.076;18.250;2022-09-09T06:59:10;13.70;99.90
23507;DHT22;11930;53.076;18.250;2022-09-09T07:01:40;13.70;99.90
23507;DHT22;11930;53.076;18.250;2022-09-09T07:04:17;13.70;99.90
23507;DHT22;11930;53.076;18.250;2022-09-09T07:06:45;13.70;99.90
23507;DHT22;11930;53.076;18.250;2022-09-09T07:09:18;13.80;99.90
23507;DHT22;11930;53.076;18.250;2022-09-09T07:11:50;13.80;99.90
23507;DHT22;11930;53.076;18.250;2022-09-09T07:14:19;13.80;99.90
23507;DHT22;11930;53.076;18.250;2022-09-09T07:16:49;13.80;99.90
23507;DHT22;11930;53.076;18.250;2022-09-09T07:19:17;13.80;99.90
23507;DHT22;11930;53.076;18.250;2022-09-09T07:21:45;13.80;99.90
23507;DHT22;11930;53.076;18.250;2022-09-09T07:24:14;13.90;99.90
23507;DHT22;11930;53.076;18.250;2022-09-09T07:26:42;14.00;99.90
23507;DHT22;11930;53.076;18.250;2022-09-09T07:29:20;14.00;99.90
23507;DHT22;11930;53.076;18.250;2022-09-09T07:31:46;13.90;99.90
23507;DHT22;11930;53.076;18.250;2022-09-09T07:34:17;13.90;99.90
23507;DHT22;11930;53.076;18.250;2022-09-09T07:36:43;13.90;99.90
23507;DHT22;11930;53.076;18.250;2022-09-09T07:39:13;13.90;99.90
23507;DHT22;11930;53.076;18.250;2022-09-09T07:41:46;14.00;99.90
23507;DHT22;11930;53.076;18.250;2022-09-09T07:44:39;14.00;99.90
23507;DHT22;11930;53.076;18.250;2022-09-09T07:48:05;14.10;99.90
23507;DHT22;11930;53.076;18.250;2022-09-09T07:50:35;14.30;99.90
23507;DHT22;11930;53.076;18.250;2022-09-09T07:53:01;14.40;99.90
23507;DHT22;11930;53.076;18.250;2022-09-09T07:55:29;14.40;99.90
23507;DHT22;11930;53.076;18.250;2022-09-09T07:57:56;14.50;99.90
23507;DHT22;11930;53.076;18.250;2022-09-09T08:00:23;14.50;99.90
23507;DHT22;11930;53.076;18.250;2022-09-09T08:02:53;14.60;99.90
23507;DHT22;11930;53.076;18.250;2022-09-09T08:05:20;14.70;99.90
23507;DHT22;11930;53.076;18.250;2022-09-09T08:08:10;14.80;99.90
23507;DHT22;11930;53.076;18.250;2022-09-09T08:10:35;14.90;99.90
23507;DHT22;11930;53.076;18.250;2022-09-09T08:13:02;15.00;99.90
23507;DHT22;11930;53.076;18.250;2022-09-09T08:15:28;15.10;99.90
23507;DHT22;11930;53.076;18.250;2022-09-09T08:17:57;15.20;99.90
23507;DHT22;11930;53.076;18.250;2022-09-09T08:20:24;15.10;99.90
23507;DHT22;11930;53.076;18.250;2022-09-09T08:22:51;15.20;99.90
23507;DHT22;11930;53.076;18.250;2022-09-09T08:25:17;15.10;99.90
23507;DHT22;11930;53.076;18.250;2022-09-09T08:27:43;15.10;99.90
23507;DHT22;11930;53.076;18.250;2022-09-09T08:30:09;15.20;99.90
23507;DHT22;11930;53.076;18.250;2022-09-09T08:32:36;15.30;99.90
23507;DHT22;11930;53.076;18.250;2022-09-09T08:35:02;15.40;99.90
23507;DHT22;11930;53.076;18.250;2022-09-09T08:37:29;15.40;99.90
23507;DHT22;11930;53.076;18.250;2022-09-09T08:39:58;15.40;99.90
23507;DHT22;11930;53.076;18.250;2022-09-09T08:53:11;15.30;99.90
23507;DHT22;11930;53.076;18.250;2022-09-09T08:55:56;15.30;99.90
23507;DHT22;11930;53.076;18.250;2022-09-09T08:58:52;15.40;99.90
23507;DHT22;11930;53.076;18.250;2022-09-09T09:04:45;15.50;99.90
23507;DHT22;11930;53.076;18.250;2022-09-09T09:12:58;16.10;99.90
23507;DHT22;11930;53.076;18.250;2022-09-09T09:15:31;16.30;99.90
23507;DHT22;11930;53.076;18.250;2022-09-09T09:18:04;16.50;99.90
23507;DHT22;11930;53.076;18.250;2022-09-09T09:21:05;16.50;99.90
23507;DHT22;11930;53.076;18.250;2022-09-09T09:23:49;16.40;99.90
23507;DHT22;11930;53.076;18.250;2022-09-09T09:26:18;16.10;99.90
23507;DHT22;11930;53.076;18.250;2022-09-09T09:28:46;16.00;99.90
23507;DHT22;11930;53.076;18.250;2022-09-09T09:31:15;16.10;99.90
23507;DHT22;11930;53.076;18.250;2022-09-09T09:33:52;16.20;99.90
23507;DHT22;11930;53.076;18.250;2022-09-09T09:39:25;16.50;99.90
23507;DHT22;11930;53.076;18.250;2022-09-09T09:41:52;16.40;99.90
23507;DHT22;11930;53.076;18.250;2022-09-09T09:44:31;16.50;99.90
23507;DHT22;11930;53.076;18.250;2022-09-09T09:47:12;16.50;99.90
23507;DHT22;11930;53.076;18.250;2022-09-09T09:49:54;16.50;99.90
23507;DHT22;11930;53.076;18.250;2022-09-09T09:52:24;16.60;99.90
23507;DHT22;11930;53.076;18.250;2022-09-09T09:54:52;16.60;99.90
23507;DHT22;11930;53.076;18.250;2022-09-09T09:57:24;16.60;99.90
23507;DHT22;11930;53.076;18.250;2022-09-09T10:00:04;16.70;99.90
23507;DHT22;11930;53.076;18.250;2022-09-09T10:02:42;16.80;99.90
23507;DHT22;11930;53.076;18.250;2022-09-09T10:05:19;16.90;99.90
23507;DHT22;11930;53.076;18.250;2022-09-09T10:08:18;17.00;99.90
23507;DHT22;11930;53.076;18.250;2022-09-09T10:10:55;17.30;99.90
23507;DHT22;11930;53.076;18.250;2022-09-09T10:13:57;17.60;99.90
23507;DHT22;11930;53.076;18.250;2022-09-09T10:19:04;17.80;99.90
23507;DHT22;11930;53.076;18.250;2022-09-09T10:30:18;17.80;99.90
23507;DHT22;11930;53.076;18.250;2022-09-09T10:33:21;17.80;99.90
23507;DHT22;11930;53.076;18.250;2022-09-09T10:36:13;17.70;99.90
23507;DHT22;11930;53.076;18.250;2022-09-09T10:38:52;17.80;99.90
23507;DHT22;11930;53.076;18.250;2022-09-09T10:41:36;17.80;99.90
23507;DHT22;11930;53.076;18.250;2022-09-09T10:47:12;17.80;99.90
23507;DHT22;11930;53.076;18.250;2022-09-09T10:50:03;18.00;99.90
23507;DHT22;11930;53.076;18.250;2022-09-09T10:55:32;18.00;99.90
23507;DHT22;11930;53.076;18.250;2022-09-09T10:58:03;18.00;99.90
23507;DHT22;11930;53.076;18.250;2022-09-09T11:00:41;17.90;99.90
23507;DHT22;11930;53.076;18.250;2022-09-09T11:03:23;17.90;99.90
23507;DHT22;11930;53.076;18.250;2022-09-09T11:06:05;17.90;99.90
23507;DHT22;11930;53.076;18.250;2022-09-09T11:08:38;18.20;99.90
23507;DHT22;11930;53.076;18.250;2022-09-09T11:13:44;18.60;99.90
23507;DHT22;11930;53.076;18.250;2022-09-09T11:16:39;18.80;99.90
23507;DHT22;11930;53.076;18.250;2022-09-09T11:21:55;18.80;99.90
23507;DHT22;11930;53.076;18.250;2022-09-09T11:24:29;18.80;99.90
23507;DHT22;11930;53.076;18.250;2022-09-09T11:27:25;18.70;99.90
23507;DHT22;11930;53.076;18.250;2022-09-09T11:40:58;19.40;99.90
23507;DHT22;11930;53.076;18.250;2022-09-09T11:43:29;19.40;99.90
23507;DHT22;11930;53.076;18.250;2022-09-09T11:45:58;19.40;99.90
23507;DHT22;11930;53.076;18.250;2022-09-09T11:48:43;19.50;99.90
23507;DHT22;11930;53.076;18.250;2022-09-09T11:51:32;19.50;99.90
23507;DHT22;11930;53.076;18.250;2022-09-09T11:54:01;19.30;99.90
23507;DHT22;11930;53.076;18.250;2022-09-09T11:56:34;19.00;99.90
23507;DHT22;11930;53.076;18.250;2022-09-09T11:59:06;19.00;99.90
23507;DHT22;11930;53.076;18.250;2022-09-09T12:04:17;19.20;99.90
23507;DHT22;11930;53.076;18.250;2022-09-09T12:06:59;19.20;99.90
23507;DHT22;11930;53.076;18.250;2022-09-09T12:11:53;19.30;99.90
23507;DHT22;11930;53.076;18.250;2022-09-09T12:14:58;19.20;99.90
23507;DHT22;11930;53.076;18.250;2022-09-09T12:17:27;19.20;99.90
23507;DHT22;11930;53.076;18.250;2022-09-09T12:33:22;20.20;99.90
23507;DHT22;11930;53.076;18.250;2022-09-09T12:35:56;20.10;99.90
23507;DHT22;11930;53.076;18.250;2022-09-09T12:38:34;20.30;99.90
23507;DHT22;11930;53.076;18.250;2022-09-09T12:41:02;20.50;99.90
23507;DHT22;11930;53.076;18.250;2022-09-09T12:43:28;20.20;99.90
23507;DHT22;11930;53.076;18.250;2022-09-09T12:45:59;20.20;99.90
23507;DHT22;11930;53.076;18.250;2022-09-09T12:48:32;20.30;99.90
23507;DHT22;11930;53.076;18.250;2022-09-09T12:50:59;19.90;99.90
23507;DHT22;11930;53.076;18.250;2022-09-09T12:53:34;19.80;99.90
23507;DHT22;11930;53.076;18.250;2022-09-09T12:56:04;19.50;99.90
23507;DHT22;11930;53.076;18.250;2022-09-09T12:58:31;19.30;99.90
23507;DHT22;11930;53.076;18.250;2022-09-09T13:01:01;19.10;99.90
23507;DHT22;11930;53.076;18.250;2022-09-09T13:03:32;19.20;99.90
23507;DHT22;11930;53.076;18.250;2022-09-09T13:06:11;19.20;99.90
23507;DHT22;11930;53.076;18.250;2022-09-09T13:08:38;19.20;99.90
23507;DHT22;11930;53.076;18.250;2022-09-09T13:11:09;19.30;99.90
23507;DHT22;11930;53.076;18.250;2022-09-09T13:13:38;19.40;99.90
23507;DHT22;11930;53.076;18.250;2022-09-09T13:16:07;19.60;99.90
23507;DHT22;11930;53.076;18.250;2022-09-09T13:18:43;19.60;99.90
23507;DHT22;11930;53.076;18.250;2022-09-09T13:21:09;19.70;99.90
23507;DHT22;11930;53.076;18.250;2022-09-09T13:23:37;19.70;99.90
23507;DHT22;11930;53.076;18.250;2022-09-09T13:26:23;19.70;99.90
23507;DHT22;11930;53.076;18.250;2022-09-09T13:28:50;19.80;99.90
23507;DHT22;11930;53.076;18.250;2022-09-09T13:31:24;19.80;99.90
23507;DHT22;11930;53.076;18.250;2022-09-09T13:33:53;19.80;99.90
23507;DHT22;11930;53.076;18.250;2022-09-09T13:36:29;19.80;99.90
23507;DHT22;11930;53.076;18.250;2022-09-09T13:38:58;19.80;99.90
23507;DHT22;11930;53.076;18.250;2022-09-09T13:41:34;19.80;99.90
23507;DHT22;11930;53.076;18.250;2022-09-09T13:44:01;19.70;99.90
23507;DHT22;11930;53.076;18.250;2022-09-09T13:46:35;19.70;99.90
23507;DHT22;11930;53.076;18.250;2022-09-09T13:49:24;19.60;99.90
23507;DHT22;11930;53.076;18.250;2022-09-09T13:51:50;19.50;99.90
23507;DHT22;11930;53.076;18.250;2022-09-09T13:54:19;19.40;99.90
23507;DHT22;11930;53.076;18.250;2022-09-09T13:56:46;19.40;99.90
23507;DHT22;11930;53.076;18.250;2022-09-09T13:59:18;19.50;99.90
23507;DHT22;11930;53.076;18.250;2022-09-09T14:01:46;19.60;99.90
23507;DHT22;11930;53.076;18.250;2022-09-09T14:04:12;19.70;99.90
23507;DHT22;11930;53.076;18.250;2022-09-09T14:06:39;20.00;99.90
23507;DHT22;11930;53.076;18.250;2022-09-09T14:09:06;20.00;99.90
23507;DHT22;11930;53.076;18.250;2022-09-09T14:11:33;19.90;99.90
23507;DHT22;11930;53.076;18.250;2022-09-09T14:13:59;20.00;99.90
23507;DHT22;11930;53.076;18.250;2022-09-09T14:16:28;20.00;99.90
23507;DHT22;11930;53.076;18.250;2022-09-09T14:18:55;20.10;99.90
23507;DHT22;11930;53.076;18.250;2022-09-09T14:21:22;20.00;99.90
23507;DHT22;11930;53.076;18.250;2022-09-09T14:23:49;19.80;99.90
23507;DHT22;11930;53.076;18.250;2022-09-09T14:26:15;19.60;99.90
23507;DHT22;11930;53.076;18.250;2022-09-09T14:28:41;19.50;99.90
23507;DHT22;11930;53.076;18.250;2022-09-09T14:31:07;19.50;99.90
23507;DHT22;11930;53.076;18.250;2022-09-09T14:33:33;19.60;99.90
23507;DHT22;11930;53.076;18.250;2022-09-09T14:36:02;19.60;99.90
23507;DHT22;11930;53.076;18.250;2022-09-09T14:38:34;19.70;99.90
23507;DHT22;11930;53.076;18.250;2022-09-09T14:41:14;19.50;99.90
23507;DHT22;11930;53.076;18.250;2022-09-09T14:43:43;19.50;99.90
23507;DHT22;11930;53.076;18.250;2022-09-09T14:46:14;19.40;99.90
23507;DHT22;11930;53.076;18.250;2022-09-09T14:48:40;19.40;99.90
23507;DHT22;11930;53.076;18.250;2022-09-09T14:51:11;19.30;99.90
23507;DHT22;11930;53.076;18.250;2022-09-09T14:53:39;19.20;99.90
23507;DHT22;11930;53.076;18.250;2022-09-09T14:56:11;19.20;99.90
23507;DHT22;11930;53.076;18.250;2022-09-09T14:58:38;19.30;99.90
23507;DHT22;11930;53.076;18.250;2022-09-09T15:01:06;19.30;99.90
23507;DHT22;11930;53.076;18.250;2022-09-09T15:03:33;19.40;99.90
23507;DHT22;11930;53.076;18.250;2022-09-09T15:06:05;19.50;99.90
23507;DHT22;11930;53.076;18.250;2022-09-09T15:08:32;19.40;99.90
23507;DHT22;11930;53.076;18.250;2022-09-09T15:11:05;19.50;99.90
23507;DHT22;11930;53.076;18.250;2022-09-09T15:13:37;19.50;99.90
23507;DHT22;11930;53.076;18.250;2022-09-09T15:16:05;19.40;99.90
23507;DHT22;11930;53.076;18.250;2022-09-09T15:18:32;19.30;99.90
23507;DHT22;11930;53.076;18.250;2022-09-09T15:21:00;19.30;99.90
23507;DHT22;11930;53.076;18.250;2022-09-09T15:23:28;19.30;99.90
23507;DHT22;11930;53.076;18.250;2022-09-09T15:25:57;19.30;99.90
23507;DHT22;11930;53.076;18.250;2022-09-09T15:28:23;19.20;99.90
23507;DHT22;11930;53.076;18.250;2022-09-09T15:30:50;19.20;99.90
23507;DHT22;11930;53.076;18.250;2022-09-09T15:33:25;19.20;99.90
23507;DHT22;11930;53.076;18.250;2022-09-09T15:35:53;19.10;99.90
23507;DHT22;11930;53.076;18.250;2022-09-09T15:38:19;19.10;99.90
23507;DHT22;11930;53.076;18.250;2022-09-09T15:40:53;19.10;99.90
23507;DHT22;11930;53.076;18.250;2022-09-09T15:43:20;19.00;99.90
23507;DHT22;11930;53.076;18.250;2022-09-09T15:45:51;18.90;99.90
23507;DHT22;11930;53.076;18.250;2022-09-09T15:48:19;18.80;99.90
23507;DHT22;11930;53.076;18.250;2022-09-09T15:50:47;18.70;99.90
23507;DHT22;11930;53.076;18.250;2022-09-09T15:53:20;18.70;99.90
23507;DHT22;11930;53.076;18.250;2022-09-09T15:55:46;18.70;99.90
23507;DHT22;11930;53.076;18.250;2022-09-09T15:58:12;18.70;99.90
23507;DHT22;11930;53.076;18.250;2022-09-09T16:00:38;18.60;99.90
23507;DHT22;11930;53.076;18.250;2022-09-09T16:03:04;18.50;99.90
23507;DHT22;11930;53.076;18.250;2022-09-09T16:05:30;18.40;99.90
23507;DHT22;11930;53.076;18.250;2022-09-09T16:07:56;18.30;99.90
23507;DHT22;11930;53.076;18.250;2022-09-09T16:10:22;18.30;99.90
23507;DHT22;11930;53.076;18.250;2022-09-09T16:12:48;18.20;99.90
23507;DHT22;11930;53.076;18.250;2022-09-09T16:15:15;18.30;99.90
23507;DHT22;11930;53.076;18.250;2022-09-09T16:17:41;18.20;99.90
23507;DHT22;11930;53.076;18.250;2022-09-09T16:20:07;18.10;99.90
23507;DHT22;11930;53.076;18.250;2022-09-09T16:22:34;18.00;99.90
23507;DHT22;11930;53.076;18.250;2022-09-09T16:25:00;18.00;99.90
23507;DHT22;11930;53.076;18.250;2022-09-09T16:27:26;17.90;99.90
23507;DHT22;11930;53.076;18.250;2022-09-09T16:29:52;17.90;99.90
23507;DHT22;11930;53.076;18.250;2022-09-09T16:32:19;17.80;99.90
23507;DHT22;11930;53.076;18.250;2022-09-09T16:34:46;17.70;99.90
23507;DHT22;11930;53.076;18.250;2022-09-09T16:37:12;17.70;99.90
23507;DHT22;11930;53.076;18.250;2022-09-09T16:39:43;17.60;99.90
23507;DHT22;11930;53.076;18.250;2022-09-09T16:42:09;17.50;99.90
23507;DHT22;11930;53.076;18.250;2022-09-09T16:44:36;17.50;99.90
23507;DHT22;11930;53.076;18.250;2022-09-09T16:47:02;17.40;99.90
23507;DHT22;11930;53.076;18.250;2022-09-09T16:49:29;17.40;99.90
23507;DHT22;11930;53.076;18.250;2022-09-09T16:51:58;17.30;99.90
23507;DHT22;11930;53.076;18.250;2022-09-09T16:54:24;17.30;99.90
23507;DHT22;11930;53.076;18.250;2022-09-09T16:56:52;17.10;99.90
23507;DHT22;11930;53.076;18.250;2022-09-09T16:59:20;17.10;99.90
23507;DHT22;11930;53.076;18.250;2022-09-09T17:01:49;17.00;99.90
23507;DHT22;11930;53.076;18.250;2022-09-09T17:04:17;16.90;99.90
23507;DHT22;11930;53.076;18.250;2022-09-09T17:06:47;16.80;99.90
23507;DHT22;11930;53.076;18.250;2022-09-09T17:09:15;16.80;99.90
23507;DHT22;11930;53.076;18.250;2022-09-09T17:11:42;16.70;99.90
23507;DHT22;11930;53.076;18.250;2022-09-09T17:14:13;16.60;99.90
23507;DHT22;11930;53.076;18.250;2022-09-09T17:16:39;16.60;99.90
23507;DHT22;11930;53.076;18.250;2022-09-09T17:19:06;16.50;99.90
23507;DHT22;11930;53.076;18.250;2022-09-09T17:21:33;16.50;99.90
23507;DHT22;11930;53.076;18.250;2022-09-09T17:24:00;16.40;99.90